sensor_id;sensor_type;location;lat;lon;timestamp;pressure;altitude;pressure_sealevel;temperature;humidity
1401;BME280;46518;48.842;8.926;2024-01-16T00:02:19;96581.63;;;-1.18;82.76
1401;BME280;46518;48.842;8.926;2024-01-16T00:04:50;96572.41;;;-1.06;83.43
1401;BME280;46518;48.842;8.926;2024-01-16T00:07:18;96581.19;;;-1.22;83.83
1401;BME280;46518;48.842;8.926;2024-01-16T00:09:46;96574.63;;;-1.24;84.30
1401;BME280;46518;48.842;8.926;2024-01-16T00:12:14;96581.38;;;-1.23;84.25
1401;BME280;46518;48.842;8.926;2024-01-16T00:14:42;96576.94;;;-1.08;83.31
1401;BME280;46518;48.842;8.926;2024-01-16T00:17:11;96575.28;;;-1.16;83.46
1401;BME280;46518;48.842;8.926;2024-01-16T00:19:39;96581.69;;;-1.12;84.15
1401;BME280;46518;48.842;8.926;2024-01-16T00:22:09;96577.56;;;-1.06;84.08
1401;BME280;46518;48.842;8.926;2024-01-16T00:24:37;96576.03;;;-1.22;84.39
1401;BME280;46518;48.842;8.926;2024-01-16T00:27:05;96568.97;;;-1.13;83.86
1401;BME280;46518;48.842;8.926;2024-01-16T00:29:37;96574.13;;;-1.13;84.24
1401;BME280;46518;48.842;8.926;2024-01-16T00:32:06;96576.59;;;-1.26;84.42
1401;BME280;46518;48.842;8.926;2024-01-16T00:34:34;96574.00;;;-1.26;84.88
1401;BME280;46518;48.842;8.926;2024-01-16T00:37:02;96579.25;;;-1.20;85.06
1401;BME280;46518;48.842;8.926;2024-01-16T00:39:32;96578.16;;;-1.25;84.60
1401;BME280;46518;48.842;8.926;2024-01-16T00:42:01;96566.69;;;-1.23;84.87
1401;BME280;46518;48.842;8.926;2024-01-16T00:44:29;96568.59;;;-1.32;86.00
1401;BME280;46518;48.842;8.926;2024-01-16T00:46:58;96571.41;;;-1.26;85.48
1401;BME280;46518;48.842;8.926;2024-01-16T00:49:28;96575.59;;;-1.25;85.53
1401;BME280;46518;48.842;8.926;2024-01-16T00:51:56;96579.28;;;-1.13;84.86
1401;BME280;46518;48.842;8.926;2024-01-16T00:54:24;96571.22;;;-1.03;84.10
1401;BME280;46518;48.842;8.926;2024-01-16T00:56:54;96572.34;;;-1.13;84.27
1401;BME280;46518;48.842;8.926;2024-01-16T00:59:26;96578.75;;;-1.09;84.38
1401;BME280;46518;48.842;8.926;2024-01-16T01:01:55;96565.75;;;-1.15;84.80
1401;BME280;46518;48.842;8.926;2024-01-16T01:04:23;96570.81;;;-1.28;85.19
1401;BME280;46518;48.842;8.926;2024-01-16T01:06:51;96562.44;;;-1.31;85.73
1401;BME280;46518;48.842;8.926;2024-01-16T01:09:20;96578.72;;;-1.30;86.17
1401;BME280;46518;48.842;8.926;2024-01-16T01:11:48;96573.00;;;-1.25;85.90
1401;BME280;46518;48.842;8.926;2024-01-16T01:14:18;96587.03;;;-1.13;84.39
1401;BME280;46518;48.842;8.926;2024-01-16T01:16:46;96573.25;;;-1.20;85.21
1401;BME280;46518;48.842;8.926;2024-01-16T01:19:14;96578.53;;;-1.28;85.67
1401;BME280;46518;48.842;8.926;2024-01-16T01:21:43;96577.81;;;-1.22;84.95
1401;BME280;46518;48.842;8.926;2024-01-16T01:24:11;96581.81;;;-1.20;84.88
1401;BME280;46518;48.842;8.926;2024-01-16T01:26:42;96586.53;;;-1.23;85.43
1401;BME280;46518;48.842;8.926;2024-01-16T01:29:10;96582.66;;;-1.13;85.41
1401;BME280;46518;48.842;8.926;2024-01-16T01:31:40;96586.66;;;-1.10;84.63
1401;BME280;46518;48.842;8.926;2024-01-16T01:34:08;96590.00;;;-1.16;85.30
1401;BME280;46518;48.842;8.926;2024-01-16T01:36:37;96583.97;;;-1.02;84.18
1401;BME280;46518;48.842;8.926;2024-01-16T01:39:05;96589.47;;;-1.05;83.89
1401;BME280;46518;48.842;8.926;2024-01-16T01:41:33;96591.78;;;-1.17;84.70
1401;BME280;46518;48.842;8.926;2024-01-16T01:44:02;96599.19;;;-0.85;82.77
1401;BME280;46518;48.842;8.926;2024-01-16T01:46:32;96591.72;;;-1.02;83.92
1401;BME280;46518;48.842;8.926;2024-01-16T01:49:02;96601.59;;;-1.27;85.35
1401;BME280;46518;48.842;8.926;2024-01-16T01:51:31;96613.31;;;-1.10;84.38
1401;BME280;46518;48.842;8.926;2024-01-16T01:54:01;96612.53;;;-1.25;84.34
1401;BME280;46518;48.842;8.926;2024-01-16T01:56:30;96607.97;;;-1.23;85.82
1401;BME280;46518;48.842;8.926;2024-01-16T01:58:59;96619.09;;;-1.22;85.68
1401;BME280;46518;48.842;8.926;2024-01-16T02:01:29;96613.91;;;-1.08;85.57
1401;BME280;46518;48.842;8.926;2024-01-16T02:04:02;96612.56;;;-1.03;85.03
1401;BME280;46518;48.842;8.926;2024-01-16T02:06:32;96605.19;;;-1.06;84.89
1401;BME280;46518;48.842;8.926;2024-01-16T02:09:00;96602.66;;;-1.00;84.79
1401;BME280;46518;48.842;8.926;2024-01-16T02:11:29;96598.41;;;-0.86;83.69
1401;BME280;46518;48.842;8.926;2024-01-16T02:13:57;96596.22;;;-0.89;83.60
1401;BME280;46518;48.842;8.926;2024-01-16T02:16:25;96604.06;;;-0.76;82.76
1401;BME280;46518;48.842;8.926;2024-01-16T02:18:53;96605.59;;;-0.81;82.72
1401;BME280;46518;48.842;8.926;2024-01-16T02:21:25;96607.31;;;-0.89;82.92
1401;BME280;46518;48.842;8.926;2024-01-16T02:23:57;96609.59;;;-0.79;82.69
1401;BME280;46518;48.842;8.926;2024-01-16T02:26:25;96603.03;;;-1.03;82.96
1401;BME280;46518;48.842;8.926;2024-01-16T02:28:53;96602.28;;;-1.18;83.12
1401;BME280;46518;48.842;8.926;2024-01-16T02:31:21;96602.66;;;-1.00;82.35
1401;BME280;46518;48.842;8.926;2024-01-16T02:33:49;96593.81;;;-1.12;83.07
1401;BME280;46518;48.842;8.926;2024-01-16T02:36:18;96602.41;;;-1.05;83.16
1401;BME280;46518;48.842;8.926;2024-01-16T02:38:46;96597.78;;;-1.31;84.05
1401;BME280;46518;48.842;8.926;2024-01-16T02:41:16;96594.28;;;-1.23;83.62
1401;BME280;46518;48.842;8.926;2024-01-16T02:43:44;96601.91;;;-1.15;83.64
1401;BME280;46518;48.842;8.926;2024-01-16T02:46:13;96598.91;;;-1.19;83.35
1401;BME280;46518;48.842;8.926;2024-01-16T02:48:42;96598.78;;;-1.32;83.26
1401;BME280;46518;48.842;8.926;2024-01-16T02:51:10;96601.41;;;-1.47;83.17
1401;BME280;46518;48.842;8.926;2024-01-16T02:53:39;96609.31;;;-1.48;83.25
1401;BME280;46518;48.842;8.926;2024-01-16T02:56:08;96606.44;;;-1.39;83.49
1401;BME280;46518;48.842;8.926;2024-01-16T02:58:38;96612.59;;;-1.40;83.46
1401;BME280;46518;48.842;8.926;2024-01-16T03:01:06;96600.56;;;-1.47;83.32
1401;BME280;46518;48.842;8.926;2024-01-16T03:03:34;96617.81;;;-1.69;84.76
1401;BME280;46518;48.842;8.926;2024-01-16T03:06:03;96619.94;;;-1.88;85.12
1401;BME280;46518;48.842;8.926;2024-01-16T03:08:35;96614.41;;;-1.85;84.82
1401;BME280;46518;48.842;8.926;2024-01-16T03:11:03;96622.22;;;-1.63;83.88
1401;BME280;46518;48.842;8.926;2024-01-16T03:13:32;96619.88;;;-1.43;83.13
1401;BME280;46518;48.842;8.926;2024-01-16T03:16:06;96612.50;;;-1.46;82.51
1401;BME280;46518;48.842;8.926;2024-01-16T03:18:34;96621.13;;;-1.39;80.93
1401;BME280;46518;48.842;8.926;2024-01-16T03:21:03;96615.13;;;-1.61;82.19
1401;BME280;46518;48.842;8.926;2024-01-16T03:23:31;96620.09;;;-1.60;81.57
1401;BME280;46518;48.842;8.926;2024-01-16T03:26:00;96626.50;;;-1.70;82.34
1401;BME280;46518;48.842;8.926;2024-01-16T03:28:30;96622.63;;;-1.81;83.42
1401;BME280;46518;48.842;8.926;2024-01-16T03:30:59;96622.72;;;-1.89;82.73
1401;BME280;46518;48.842;8.926;2024-01-16T03:33:29;96616.94;;;-2.06;83.84
1401;BME280;46518;48.842;8.926;2024-01-16T03:35:57;96625.28;;;-2.04;84.58
1401;BME280;46518;48.842;8.926;2024-01-16T03:38:25;96624.03;;;-2.08;85.20
1401;BME280;46518;48.842;8.926;2024-01-16T03:40:54;96627.59;;;-2.09;85.07
1401;BME280;46518;48.842;8.926;2024-01-16T03:43:22;96633.03;;;-2.04;84.63
1401;BME280;46518;48.842;8.926;2024-01-16T03:45:50;96633.72;;;-2.10;85.61
1401;BME280;46518;48.842;8.926;2024-01-16T03:48:19;96617.44;;;-1.81;84.70
1401;BME280;46518;48.842;8.926;2024-01-16T03:50:48;96632.31;;;-1.83;83.79
1401;BME280;46518;48.842;8.926;2024-01-16T03:53:17;96622.50;;;-1.88;84.33
1401;BME280;46518;48.842;8.926;2024-01-16T03:55:46;96622.19;;;-2.14;84.93
1401;BME280;46518;48.842;8.926;2024-01-16T03:58:14;96618.31;;;-2.48;85.37
1401;BME280;46518;48.842;8.926;2024-01-16T04:00:43;96606.41;;;-2.49;85.93
1401;BME280;46518;48.842;8.926;2024-01-16T04:03:11;96607.41;;;-2.21;86.05
1401;BME280;46518;48.842;8.926;2024-01-16T04:05:40;96621.25;;;-2.36;85.00
1401;BME280;46518;48.842;8.926;2024-01-16T04:08:09;96613.38;;;-2.58;85.71
1401;BME280;46518;48.842;8.926;2024-01-16T04:10:39;96618.00;;;-2.68;86.70
1401;BME280;46518;48.842;8.926;2024-01-16T04:13:08;96619.38;;;-2.80;87.67
1401;BME280;46518;48.842;8.926;2024-01-16T04:15:37;96608.69;;;-2.92;87.82
1401;BME280;46518;48.842;8.926;2024-01-16T04:18:06;96617.97;;;-3.06;88.83
1401;BME280;46518;48.842;8.926;2024-01-16T04:20:35;96616.63;;;-3.25;89.28
1401;BME280;46518;48.842;8.926;2024-01-16T04:23:03;96622.31;;;-3.38;89.39
1401;BME280;46518;48.842;8.926;2024-01-16T04:25:33;96618.81;;;-3.37;89.73
1401;BME280;46518;48.842;8.926;2024-01-16T04:28:01;96628.75;;;-3.34;89.88
1401;BME280;46518;48.842;8.926;2024-01-16T04:30:30;96621.97;;;-3.35;90.33
1401;BME280;46518;48.842;8.926;2024-01-16T04:32:58;96624.88;;;-3.07;90.48
1401;BME280;46518;48.842;8.926;2024-01-16T04:35:26;96611.72;;;-2.89;87.17
1401;BME280;46518;48.842;8.926;2024-01-16T04:37:55;96614.47;;;-3.13;86.69
1401;BME280;46518;48.842;8.926;2024-01-16T04:40:23;96608.22;;;-3.19;87.28
1401;BME280;46518;48.842;8.926;2024-01-16T04:42:52;96601.94;;;-3.16;87.09
1401;BME280;46518;48.842;8.926;2024-01-16T04:45:20;96597.66;;;-3.01;86.89
1401;BME280;46518;48.842;8.926;2024-01-16T04:47:48;96600.75;;;-3.29;86.25
1401;BME280;46518;48.842;8.926;2024-01-16T04:50:18;96599.03;;;-3.44;88.73
1401;BME280;46518;48.842;8.926;2024-01-16T04:52:46;96592.19;;;-3.83;90.67
1401;BME280;46518;48.842;8.926;2024-01-16T04:55:16;96588.63;;;-3.74;90.16
1401;BME280;46518;48.842;8.926;2024-01-16T04:57:45;96596.81;;;-3.79;91.53
1401;BME280;46518;48.842;8.926;2024-01-16T05:00:15;96593.75;;;-3.74;91.42
1401;BME280;46518;48.842;8.926;2024-01-16T05:02:43;96590.19;;;-3.73;90.54
1401;BME280;46518;48.842;8.926;2024-01-16T05:05:12;96598.59;;;-3.79;91.44
1401;BME280;46518;48.842;8.926;2024-01-16T05:07:40;96608.06;;;-3.80;91.39
1401;BME280;46518;48.842;8.926;2024-01-16T05:10:09;96605.09;;;-4.00;92.57
1401;BME280;46518;48.842;8.926;2024-01-16T05:12:38;96606.53;;;-3.97;92.23
1401;BME280;46518;48.842;8.926;2024-01-16T05:15:07;96601.25;;;-4.04;92.09
1401;BME280;46518;48.842;8.926;2024-01-16T05:17:39;96607.88;;;-4.18;92.46
1401;BME280;46518;48.842;8.926;2024-01-16T05:20:08;96598.75;;;-4.28;92.73
1401;BME280;46518;48.842;8.926;2024-01-16T05:22:37;96597.66;;;-4.34;93.83
1401;BME280;46518;48.842;8.926;2024-01-16T05:25:07;96587.38;;;-3.95;93.77
1401;BME280;46518;48.842;8.926;2024-01-16T05:27:35;96584.69;;;-3.62;91.41
1401;BME280;46518;48.842;8.926;2024-01-16T05:30:04;96581.94;;;-3.60;90.00
1401;BME280;46518;48.842;8.926;2024-01-16T05:32:38;96580.34;;;-3.61;89.44
1401;BME280;46518;48.842;8.926;2024-01-16T05:35:08;96579.88;;;-3.96;90.88
1401;BME280;46518;48.842;8.926;2024-01-16T05:37:37;96581.22;;;-4.25;91.02
1401;BME280;46518;48.842;8.926;2024-01-16T05:40:09;96579.16;;;-4.29;92.17
1401;BME280;46518;48.842;8.926;2024-01-16T05:42:38;96576.75;;;-4.23;93.00
1401;BME280;46518;48.842;8.926;2024-01-16T05:45:07;96576.28;;;-4.35;94.39
1401;BME280;46518;48.842;8.926;2024-01-16T05:47:36;96570.53;;;-4.37;94.45
1401;BME280;46518;48.842;8.926;2024-01-16T05:50:07;96563.13;;;-4.31;94.45
1401;BME280;46518;48.842;8.926;2024-01-16T05:52:36;96558.59;;;-4.29;94.56
1401;BME280;46518;48.842;8.926;2024-01-16T05:55:08;96559.25;;;-4.27;95.24
1401;BME280;46518;48.842;8.926;2024-01-16T05:57:37;96557.81;;;-4.22;94.84
1401;BME280;46518;48.842;8.926;2024-01-16T06:00:07;96555.44;;;-4.31;95.33
1401;BME280;46518;48.842;8.926;2024-01-16T06:02:35;96563.59;;;-4.28;95.41
1401;BME280;46518;48.842;8.926;2024-01-16T06:05:05;96548.31;;;-4.21;95.93
1401;BME280;46518;48.842;8.926;2024-01-16T06:07:34;96556.66;;;-4.19;95.62
1401;BME280;46518;48.842;8.926;2024-01-16T06:10:02;96559.25;;;-4.19;95.70
1401;BME280;46518;48.842;8.926;2024-01-16T06:12:34;96549.28;;;-4.22;95.83
1401;BME280;46518;48.842;8.926;2024-01-16T06:15:02;96548.47;;;-4.23;96.50
1401;BME280;46518;48.842;8.926;2024-01-16T06:17:30;96554.41;;;-4.14;96.31
1401;BME280;46518;48.842;8.926;2024-01-16T06:19:59;96554.38;;;-4.06;95.28
1401;BME280;46518;48.842;8.926;2024-01-16T06:22:28;96562.03;;;-3.98;94.31
1401;BME280;46518;48.842;8.926;2024-01-16T06:24:57;96561.09;;;-3.97;94.42
1401;BME280;46518;48.842;8.926;2024-01-16T06:27:25;96560.78;;;-4.02;94.13
1401;BME280;46518;48.842;8.926;2024-01-16T06:29:53;96559.31;;;-4.04;94.32
1401;BME280;46518;48.842;8.926;2024-01-16T06:32:22;96569.28;;;-4.09;94.08
1401;BME280;46518;48.842;8.926;2024-01-16T06:34:50;96566.81;;;-4.26;93.78
1401;BME280;46518;48.842;8.926;2024-01-16T06:37:19;96570.00;;;-4.32;94.12
1401;BME280;46518;48.842;8.926;2024-01-16T06:39:48;96566.00;;;-4.26;94.15
1401;BME280;46518;48.842;8.926;2024-01-16T06:42:17;96560.88;;;-4.26;93.87
1401;BME280;46518;48.842;8.926;2024-01-16T06:44:46;96570.50;;;-4.28;94.45
1401;BME280;46518;48.842;8.926;2024-01-16T06:47:15;96570.00;;;-4.32;93.86
1401;BME280;46518;48.842;8.926;2024-01-16T06:49:43;96575.34;;;-4.34;94.11
1401;BME280;46518;48.842;8.926;2024-01-16T06:52:12;96575.63;;;-4.28;94.12
1401;BME280;46518;48.842;8.926;2024-01-16T06:54:40;96581.22;;;-4.17;93.94
1401;BME280;46518;48.842;8.926;2024-01-16T06:57:10;96580.94;;;-4.22;93.87
1401;BME280;46518;48.842;8.926;2024-01-16T06:59:39;96583.28;;;-4.04;93.27
1401;BME280;46518;48.842;8.926;2024-01-16T07:02:07;96587.09;;;-4.00;92.40
1401;BME280;46518;48.842;8.926;2024-01-16T07:04:36;96576.91;;;-3.85;91.75
1401;BME280;46518;48.842;8.926;2024-01-16T07:07:04;96573.13;;;-3.66;91.72
1401;BME280;46518;48.842;8.926;2024-01-16T07:09:33;96572.28;;;-3.90;90.39
1401;BME280;46518;48.842;8.926;2024-01-16T07:12:01;96570.34;;;-3.87;90.73
1401;BME280;46518;48.842;8.926;2024-01-16T07:14:32;96574.63;;;-3.72;90.75
1401;BME280;46518;48.842;8.926;2024-01-16T07:17:01;96567.03;;;-4.04;90.32
1401;BME280;46518;48.842;8.926;2024-01-16T07:19:29;96565.81;;;-4.25;92.17
1401;BME280;46518;48.842;8.926;2024-01-16T07:21:58;96572.75;;;-4.34;92.53
1401;BME280;46518;48.842;8.926;2024-01-16T07:24:26;96574.97;;;-4.22;93.53
1401;BME280;46518;48.842;8.926;2024-01-16T07:26:54;96570.28;;;-4.10;92.55
1401;BME280;46518;48.842;8.926;2024-01-16T07:29:23;96572.88;;;-4.19;92.47
1401;BME280;46518;48.842;8.926;2024-01-16T07:31:53;96570.00;;;-3.84;91.46
1401;BME280;46518;48.842;8.926;2024-01-16T07:34:21;96563.56;;;-3.80;90.85
1401;BME280;46518;48.842;8.926;2024-01-16T07:36:50;96548.13;;;-4.12;91.27
1401;BME280;46518;48.842;8.926;2024-01-16T07:39:18;96554.41;;;-4.22;92.63
1401;BME280;46518;48.842;8.926;2024-01-16T07:41:52;96553.16;;;-4.26;92.69
1401;BME280;46518;48.842;8.926;2024-01-16T07:44:21;96551.03;;;-4.23;93.12
1401;BME280;46518;48.842;8.926;2024-01-16T07:46:49;96561.16;;;-4.21;92.68
1401;BME280;46518;48.842;8.926;2024-01-16T07:49:19;96563.94;;;-3.92;92.73
1401;BME280;46518;48.842;8.926;2024-01-16T07:51:48;96573.09;;;-3.89;90.84
1401;BME280;46518;48.842;8.926;2024-01-16T07:54:16;96573.63;;;-4.02;91.06
1401;BME280;46518;48.842;8.926;2024-01-16T07:56:45;96568.81;;;-4.05;91.86
1401;BME280;46518;48.842;8.926;2024-01-16T07:59:13;96568.50;;;-4.02;91.42
1401;BME280;46518;48.842;8.926;2024-01-16T08:01:42;96574.09;;;-3.98;90.93
1401;BME280;46518;48.842;8.926;2024-01-16T08:04:10;96565.75;;;-4.00;91.21
1401;BME280;46518;48.842;8.926;2024-01-16T08:06:40;96560.34;;;-3.82;90.22
1401;BME280;46518;48.842;8.926;2024-01-16T08:09:09;96568.66;;;-3.72;90.11
1401;BME280;46518;48.842;8.926;2024-01-16T08:11:39;96566.63;;;-3.77;90.17
1401;BME280;46518;48.842;8.926;2024-01-16T08:14:08;96568.88;;;-3.82;89.53
1401;BME280;46518;48.842;8.926;2024-01-16T08:16:36;96568.69;;;-3.80;89.71
1401;BME280;46518;48.842;8.926;2024-01-16T08:19:04;96569.38;;;-3.86;89.51
1401;BME280;46518;48.842;8.926;2024-01-16T08:21:33;96568.78;;;-3.65;88.96
1401;BME280;46518;48.842;8.926;2024-01-16T08:24:03;96574.44;;;-3.70;88.78
1401;BME280;46518;48.842;8.926;2024-01-16T08:26:31;96581.50;;;-3.64;89.49
1401;BME280;46518;48.842;8.926;2024-01-16T08:29:00;96585.00;;;-3.65;88.46
1401;BME280;46518;48.842;8.926;2024-01-16T08:31:28;96587.09;;;-3.60;88.33
1401;BME280;46518;48.842;8.926;2024-01-16T08:33:56;96590.28;;;-3.58;89.13
1401;BME280;46518;48.842;8.926;2024-01-16T08:36:25;96589.59;;;-3.52;88.54
1401;BME280;46518;48.842;8.926;2024-01-16T08:38:54;96593.75;;;-3.43;89.09
1401;BME280;46518;48.842;8.926;2024-01-16T08:41:24;96593.53;;;-3.33;88.06
1401;BME280;46518;48.842;8.926;2024-01-16T08:43:52;96596.72;;;-3.31;88.10
1401;BME280;46518;48.842;8.926;2024-01-16T08:46:21;96597.50;;;-3.54;87.38
1401;BME280;46518;48.842;8.926;2024-01-16T08:48:50;96601.00;;;-3.47;88.64
1401;BME280;46518;48.842;8.926;2024-01-16T08:51:18;96600.38;;;-3.49;88.25
1401;BME280;46518;48.842;8.926;2024-01-16T08:53:47;96597.59;;;-3.39;88.08
1401;BME280;46518;48.842;8.926;2024-01-16T08:56:15;96598.03;;;-3.35;87.82
1401;BME280;46518;48.842;8.926;2024-01-16T08:58:46;96589.38;;;-3.34;87.66
1401;BME280;46518;48.842;8.926;2024-01-16T09:01:14;96590.38;;;-2.97;87.24
1401;BME280;46518;48.842;8.926;2024-01-16T09:03:43;96591.19;;;-3.20;86.39
1401;BME280;46518;48.842;8.926;2024-01-16T09:06:11;96594.09;;;-3.23;86.18
1401;BME280;46518;48.842;8.926;2024-01-16T09:08:40;96590.44;;;-3.06;86.10
1401;BME280;46518;48.842;8.926;2024-01-16T09:11:08;96599.91;;;-2.83;85.81
1401;BME280;46518;48.842;8.926;2024-01-16T09:13:38;96591.13;;;-2.89;84.95
1401;BME280;46518;48.842;8.926;2024-01-16T09:16:08;96601.53;;;-2.82;85.97
1401;BME280;46518;48.842;8.926;2024-01-16T09:18:37;96597.06;;;-2.88;84.98
1401;BME280;46518;48.842;8.926;2024-01-16T09:21:05;96601.31;;;-2.95;86.29
1401;BME280;46518;48.842;8.926;2024-01-16T09:23:34;96610.63;;;-2.71;84.46
1401;BME280;46518;48.842;8.926;2024-01-16T09:26:05;96615.34;;;-2.60;84.79
1401;BME280;46518;48.842;8.926;2024-01-16T09:28:34;96611.56;;;-2.72;85.08
1401;BME280;46518;48.842;8.926;2024-01-16T09:31:03;96610.03;;;-2.58;84.31
1401;BME280;46518;48.842;8.926;2024-01-16T09:33:33;96606.72;;;-2.52;83.94
1401;BME280;46518;48.842;8.926;2024-01-16T09:36:02;96606.44;;;-2.20;82.83
1401;BME280;46518;48.842;8.926;2024-01-16T09:38:31;96599.16;;;-2.01;81.94
1401;BME280;46518;48.842;8.926;2024-01-16T09:40:59;96603.56;;;-1.80;82.58
1401;BME280;46518;48.842;8.926;2024-01-16T09:43:31;96604.91;;;-1.69;81.35
1401;BME280;46518;48.842;8.926;2024-01-16T09:46:00;96604.41;;;-1.43;80.15
1401;BME280;46518;48.842;8.926;2024-01-16T09:48:30;96602.97;;;-1.46;79.57
1401;BME280;46518;48.842;8.926;2024-01-16T09:51:01;96594.91;;;-1.21;78.38
1401;BME280;46518;48.842;8.926;2024-01-16T09:53:30;96596.63;;;-1.28;77.87
1401;BME280;46518;48.842;8.926;2024-01-16T09:56:02;96590.22;;;-1.33;77.82
1401;BME280;46518;48.842;8.926;2024-01-16T09:58:34;96587.22;;;-1.36;77.96
1401;BME280;46518;48.842;8.926;2024-01-16T10:01:05;96582.00;;;-1.21;76.90
1401;BME280;46518;48.842;8.926;2024-01-16T10:03:34;96575.78;;;-1.27;77.10
1401;BME280;46518;48.842;8.926;2024-01-16T10:06:06;96594.94;;;-1.36;78.80
1401;BME280;46518;48.842;8.926;2024-01-16T10:08:35;96587.09;;;-1.06;77.10
1401;BME280;46518;48.842;8.926;2024-01-16T10:11:05;96591.53;;;-1.00;76.71
1401;BME280;46518;48.842;8.926;2024-01-16T10:13:34;96581.03;;;-0.71;77.34
1401;BME280;46518;48.842;8.926;2024-01-16T10:16:03;96571.00;;;-0.59;75.05
1401;BME280;46518;48.842;8.926;2024-01-16T10:18:32;96564.03;;;-0.58;73.87
1401;BME280;46518;48.842;8.926;2024-01-16T10:21:01;96557.22;;;-0.66;74.07
1401;BME280;46518;48.842;8.926;2024-01-16T10:23:32;96561.31;;;-0.15;74.16
1401;BME280;46518;48.842;8.926;2024-01-16T10:26:08;96550.84;;;-0.07;73.08
1401;BME280;46518;48.842;8.926;2024-01-16T10:28:38;96548.00;;;0.23;71.60
1401;BME280;46518;48.842;8.926;2024-01-16T10:31:08;96546.66;;;0.47;70.98
1401;BME280;46518;48.842;8.926;2024-01-16T10:33:37;96543.34;;;0.11;68.66
1401;BME280;46518;48.842;8.926;2024-01-16T10:36:11;96545.50;;;0.01;69.89
1401;BME280;46518;48.842;8.926;2024-01-16T10:38:43;96549.84;;;-0.06;70.26
1401;BME280;46518;48.842;8.926;2024-01-16T10:41:13;96541.19;;;0.21;70.67
1401;BME280;46518;48.842;8.926;2024-01-16T10:43:42;96546.25;;;0.43;69.86
1401;BME280;46518;48.842;8.926;2024-01-16T10:46:13;96548.94;;;0.83;69.00
1401;BME280;46518;48.842;8.926;2024-01-16T10:48:43;96555.69;;;0.77;66.79
1401;BME280;46518;48.842;8.926;2024-01-16T10:51:14;96553.13;;;0.91;66.18
1401;BME280;46518;48.842;8.926;2024-01-16T10:53:45;96543.72;;;0.76;64.17
1401;BME280;46518;48.842;8.926;2024-01-16T10:56:17;96534.72;;;0.59;65.35
1401;BME280;46518;48.842;8.926;2024-01-16T10:58:51;96534.50;;;0.47;65.12
1401;BME280;46518;48.842;8.926;2024-01-16T11:01:24;96530.31;;;0.39;63.59
1401;BME280;46518;48.842;8.926;2024-01-16T11:03:54;96534.00;;;0.17;64.45
1401;BME280;46518;48.842;8.926;2024-01-16T11:06:24;96528.22;;;0.15;64.49
1401;BME280;46518;48.842;8.926;2024-01-16T11:08:56;96537.44;;;0.24;65.81
1401;BME280;46518;48.842;8.926;2024-01-16T11:11:26;96527.53;;;0.41;64.91
1401;BME280;46518;48.842;8.926;2024-01-16T11:13:57;96532.53;;;0.49;63.26
1401;BME280;46518;48.842;8.926;2024-01-16T11:16:26;96521.00;;;0.58;63.00
1401;BME280;46518;48.842;8.926;2024-01-16T11:18:56;96518.03;;;0.75;63.01
1401;BME280;46518;48.842;8.926;2024-01-16T11:21:45;96518.38;;;0.52;62.59
1401;BME280;46518;48.842;8.926;2024-01-16T11:24:16;96509.25;;;0.69;61.68
1401;BME280;46518;48.842;8.926;2024-01-16T11:26:44;96495.72;;;0.74;62.05
1401;BME280;46518;48.842;8.926;2024-01-16T11:29:35;96496.91;;;0.64;61.46
1401;BME280;46518;48.842;8.926;2024-01-16T11:32:04;96484.78;;;0.78;61.54
1401;BME280;46518;48.842;8.926;2024-01-16T11:34:54;96497.72;;;0.92;60.76
1401;BME280;46518;48.842;8.926;2024-01-16T11:37:27;96493.94;;;0.81;61.76
1401;BME280;46518;48.842;8.926;2024-01-16T11:40:23;96484.78;;;0.85;60.76
1401;BME280;46518;48.842;8.926;2024-01-16T11:42:53;96477.78;;;1.05;61.37
1401;BME280;46518;48.842;8.926;2024-01-16T11:45:47;96474.97;;;1.27;61.26
1401;BME280;46518;48.842;8.926;2024-01-16T11:48:16;96466.19;;;1.35;60.70
1401;BME280;46518;48.842;8.926;2024-01-16T11:50:45;96457.97;;;1.51;60.62
1401;BME280;46518;48.842;8.926;2024-01-16T11:53:33;96448.16;;;1.66;59.83
1401;BME280;46518;48.842;8.926;2024-01-16T11:56:35;96449.69;;;1.81;58.00
1401;BME280;46518;48.842;8.926;2024-01-16T11:59:32;96452.13;;;2.14;58.42
1401;BME280;46518;48.842;8.926;2024-01-16T12:02:11;96443.09;;;2.30;56.73
1401;BME280;46518;48.842;8.926;2024-01-16T12:04:40;96443.78;;;2.44;56.21
1401;BME280;46518;48.842;8.926;2024-01-16T12:07:09;96433.19;;;2.45;55.87
1401;BME280;46518;48.842;8.926;2024-01-16T12:09:38;96426.03;;;2.41;56.69
1401;BME280;46518;48.842;8.926;2024-01-16T12:12:08;96418.81;;;2.11;56.30
1401;BME280;46518;48.842;8.926;2024-01-16T12:14:36;96419.31;;;2.26;57.18
1401;BME280;46518;48.842;8.926;2024-01-16T12:17:09;96419.75;;;2.55;55.84
1401;BME280;46518;48.842;8.926;2024-01-16T12:19:38;96417.47;;;2.65;56.09
1401;BME280;46518;48.842;8.926;2024-01-16T12:22:13;96411.41;;;2.71;56.30
1401;BME280;46518;48.842;8.926;2024-01-16T12:24:42;96399.78;;;2.74;57.55
1401;BME280;46518;48.842;8.926;2024-01-16T12:27:13;96388.63;;;2.73;56.98
1401;BME280;46518;48.842;8.926;2024-01-16T12:29:42;96389.47;;;2.67;55.52
1401;BME280;46518;48.842;8.926;2024-01-16T12:32:11;96393.53;;;2.81;56.42
1401;BME280;46518;48.842;8.926;2024-01-16T12:34:46;96395.81;;;2.71;54.64
1401;BME280;46518;48.842;8.926;2024-01-16T12:37:16;96390.19;;;2.49;54.86
1401;BME280;46518;48.842;8.926;2024-01-16T12:39:44;96386.69;;;2.37;55.10
1401;BME280;46518;48.842;8.926;2024-01-16T12:42:14;96401.19;;;2.20;54.48
1401;BME280;46518;48.842;8.926;2024-01-16T12:44:42;96388.78;;;2.22;54.85
1401;BME280;46518;48.842;8.926;2024-01-16T12:47:10;96401.75;;;2.28;55.05
1401;BME280;46518;48.842;8.926;2024-01-16T12:49:40;96401.78;;;1.90;55.41
1401;BME280;46518;48.842;8.926;2024-01-16T12:52:20;96392.13;;;1.59;55.25
1401;BME280;46518;48.842;8.926;2024-01-16T12:54:58;96392.38;;;1.89;56.43
1401;BME280;46518;48.842;8.926;2024-01-16T12:57:28;96380.78;;;2.30;56.51
1401;BME280;46518;48.842;8.926;2024-01-16T12:59:56;96391.94;;;1.99;54.96
1401;BME280;46518;48.842;8.926;2024-01-16T13:02:28;96389.19;;;1.87;53.87
1401;BME280;46518;48.842;8.926;2024-01-16T13:04:58;96390.75;;;1.94;53.83
1401;BME280;46518;48.842;8.926;2024-01-16T13:07:27;96382.75;;;1.96;53.87
1401;BME280;46518;48.842;8.926;2024-01-16T13:10:08;96373.50;;;2.38;52.88
1401;BME280;46518;48.842;8.926;2024-01-16T13:12:40;96363.50;;;2.67;52.79
1401;BME280;46518;48.842;8.926;2024-01-16T13:15:08;96357.50;;;2.42;52.03
1401;BME280;46518;48.842;8.926;2024-01-16T13:17:38;96358.16;;;2.62;51.45
1401;BME280;46518;48.842;8.926;2024-01-16T13:20:07;96351.41;;;2.29;51.78
1401;BME280;46518;48.842;8.926;2024-01-16T13:22:37;96344.59;;;2.78;52.99
1401;BME280;46518;48.842;8.926;2024-01-16T13:25:14;96332.88;;;3.13;50.66
1401;BME280;46518;48.842;8.926;2024-01-16T13:27:43;96333.44;;;3.33;49.53